Terminal Aerodrome Forecast
Issued by NWS

Home | Current Version | Previous Version | Text Only | Print | Product List | Glossary On
Versions: 1 2 3 4 5 6 7 8 9 10 11 12 13
000
FTUS45 KRIW 222330
TAFCPR
TAF
KCPR 222330Z 2300/2324 22018G28KT P6SM BKN200 WS020/23040KT
     FM230900 22016G26KT P6SM BKN080
     FM232300 01010KT P6SM VCSH SCT035 BKN050=

USA.gov is the U.S. government's official web portal to all federal, state and local government web resources and services.